Time;durP1;ratioP1;P1;durP2;ratioP2;P2;SDS_P1;SDS_P2;PMS_P1;PMS_P2;Temp;Humidity;BMP_temperature;BMP_pressure;BME280_temperature;BME280_humidity;BME280_pressure;Samples;Min_cycle;Max_cycle;Signal;HPM_P1;HPM_P2
2022/08/25 07:03:20;;;;;;;12.33;3.15;;;26.50;56.20;;;;;;1958012;73;26257;-66
2022/08/25 07:05:57;;;;;;;14.53;3.65;;;26.40;56.50;;;;;;1917524;75;21094;-62
2022/08/25 07:08:29;;;;;;;9.13;3.00;;;26.50;56.20;;;;;;1834813;74;21159;-60
2022/08/25 07:11:00;;;;;;;11.63;3.40;;;26.60;56.20;;;;;;1884092;75;21109;-62
2022/08/25 07:13:30;;;;;;;10.18;2.42;;;26.70;56.10;;;;;;1884014;76;21146;-59
2022/08/25 07:16:00;;;;;;;10.78;3.08;;;26.80;56.10;;;;;;1884091;76;21101;-61
2022/08/25 07:18:30;;;;;;;17.73;3.58;;;26.90;55.90;;;;;;1884060;76;21161;-66
2022/08/25 07:20:59;;;;;;;15.03;3.40;;;27.00;55.30;;;;;;1884165;76;21057;-61
2022/08/25 07:23:28;;;;;;;12.75;3.08;;;27.10;55.40;;;;;;1884229;75;21030;-65
2022/08/25 07:25:59;;;;;;;18.12;4.25;;;27.10;55.20;;;;;;1884202;76;21030;-66
2022/08/25 07:28:28;;;;;;;11.75;3.50;;;27.20;55.40;;;;;;1882891;75;21108;-65
2022/08/25 07:31:00;;;;;;;13.22;3.30;;;27.20;55.30;;;;;;1884124;75;21143;-66
2022/08/25 07:33:29;;;;;;;12.00;3.00;;;27.20;55.30;;;;;;1884037;75;21049;-63
2022/08/25 07:35:58;;;;;;;13.22;3.45;;;27.30;55.20;;;;;;1884177;76;21096;-64
2022/08/25 07:38:28;;;;;;;10.45;3.05;;;27.30;55.20;;;;;;1884184;75;21065;-62
2022/08/25 07:41:03;;;;;;;8.18;2.47;;;27.40;55.40;;;;;;1884241;76;21034;-61
2022/08/25 07:43:33;;;;;;;14.98;3.10;;;27.40;55.30;;;;;;1884347;76;21041;-64
2022/08/25 07:46:05;;;;;;;13.65;2.62;;;27.40;55.40;;;;;;1884038;75;21057;-62
2022/08/25 07:48:34;;;;;;;12.23;3.37;;;27.50;55.60;;;;;;1884146;76;21083;-62
2022/08/25 07:51:08;;;;;;;9.10;2.62;;;27.50;55.70;;;;;;1884170;76;21023;-62
2022/08/25 07:53:37;;;;;;;;;;;27.50;55.60;;;;;;1886915;75;21104;-63
2022/08/25 07:56:11;;;;;;;17.48;3.77;;;27.60;55.40;;;;;;1884218;75;20105;-65
2022/08/25 07:58:41;;;;;;;4.83;1.72;;;27.60;55.70;;;;;;1884148;76;21119;-58
2022/08/25 08:01:22;;;;;;;7.45;2.25;;;27.60;55.80;;;;;;1884034;75;21069;-59
2022/08/25 08:03:51;;;;;;;14.30;2.80;;;27.70;55.80;;;;;;1884293;76;21109;-62
2022/08/25 08:06:23;;;;;;;6.83;2.65;;;27.70;55.90;;;;;;1884150;76;21014;-68
2022/08/25 08:08:54;;;;;;;12.45;3.37;;;27.70;56.00;;;;;;1867366;75;21194;-61
2022/08/25 08:11:25;;;;;;;9.08;2.87;;;27.90;56.20;;;;;;1863747;76;21037;-63
2022/08/25 08:13:57;;;;;;;7.80;2.40;;;28.00;56.00;;;;;;1863627;76;21057;-62
2022/08/25 08:16:28;;;;;;;7.37;2.30;;;28.10;55.60;;;;;;1863557;76;21143;-62
2022/08/25 08:18:58;;;;;;;14.87;3.50;;;28.20;55.60;;;;;;1863473;76;20994;-62
2022/08/25 08:21:31;;;;;;;10.85;2.40;;;28.20;55.30;;;;;;1863458;76;21107;-62
2022/08/25 08:24:01;;;;;;;9.15;2.65;;;28.30;55.10;;;;;;1863651;77;21094;-62
2022/08/25 08:26:30;;;;;;;8.13;2.10;;;28.30;55.10;;;;;;1863464;76;21025;-62
2022/08/25 08:29:00;;;;;;;12.78;3.33;;;28.30;55.00;;;;;;1863429;76;21049;-62
2022/08/25 08:31:29;;;;;;;11.85;3.20;;;28.40;55.10;;;;;;1863318;76;21030;-62
2022/08/25 08:33:59;;;;;;;10.20;3.52;;;28.30;55.30;;;;;;1863365;76;21111;-62
2022/08/25 08:36:29;;;;;;;15.32;3.02;;;28.40;55.30;;;;;;1863344;76;21099;-62
2022/08/25 08:38:59;;;;;;;12.68;4.67;;;28.50;55.30;;;;;;1863459;76;21006;-62
2022/08/25 08:44:49;;;;;;;4.25;2.30;;;28.60;54.50;;;;;;1863613;76;21058;-62
2022/08/25 08:47:24;;;;;;;11.78;2.55;;;28.50;54.60;;;;;;1863587;77;21026;-62
2022/08/25 08:50:08;;;;;;;9.53;3.58;;;28.50;54.70;;;;;;1863139;77;21108;-62
2022/08/25 08:52:45;;;;;;;11.63;4.43;;;28.60;55.00;;;;;;1863735;76;21017;-62
2022/08/25 08:55:26;;;;;;;15.58;3.08;;;28.60;55.00;;;;;;1863670;76;21022;-62
2022/08/25 08:57:59;;;;;;;12.03;2.98;;;28.70;55.00;;;;;;1863353;77;21132;-62
2022/08/25 09:00:29;;;;;;;6.12;2.52;;;28.80;54.60;;;;;;1863362;77;21029;-62
2022/08/25 09:03:07;;;;;;;10.53;2.95;;;28.70;54.50;;;;;;1863581;76;21034;-62
2022/08/25 09:05:45;;;;;;;9.45;2.67;;;28.70;54.80;;;;;;1912197;74;21135;-62
2022/08/25 09:08:16;;;;;;;7.00;2.60;;;28.60;54.90;;;;;;1964290;73;21028;-62
2022/08/25 09:11:20;;;;;;;6.83;2.80;;;28.60;55.10;;;;;;1964373;73;21004;-62
2022/08/25 09:14:09;;;;;;;12.90;2.80;;;28.60;55.20;;;;;;1964381;73;21113;-62
2022/08/25 09:19:51;;;;;;;45.15;4.87;;;28.70;55.20;;;;;;1857449;76;21081;-62
2022/08/25 09:22:29;;;;;;;6.12;2.67;;;28.90;55.10;;;;;;1857461;76;21127;-62
2022/08/25 09:25:19;;;;;;;10.43;3.85;;;29.00;54.90;;;;;;1857402;77;21104;-61
2022/08/25 09:27:57;;;;;;;5.12;2.60;;;29.20;54.60;;;;;;1857500;76;21099;-61
2022/08/25 09:30:29;;;;;;;6.03;2.40;;;29.20;54.10;;;;;;1856905;77;21622;-61
2022/08/25 09:33:03;;;;;;;8.28;3.25;;;29.30;54.10;;;;;;1857497;77;21492;-61
2022/08/25 09:35:35;;;;;;;15.13;3.70;;;29.30;53.70;;;;;;1857638;77;21108;-61
2022/08/25 09:38:10;;;;;;;9.58;2.37;;;29.40;54.00;;;;;;1857397;77;21158;-61
2022/08/25 09:40:39;;;;;;;;;;;29.50;53.90;;;;;;1825057;77;21014;-61
2022/08/25 09:43:23;;;;;;;14.58;2.45;;;29.60;53.50;;;;;;1856338;75;20161;-61
2022/08/25 09:46:01;;;;;;;7.30;2.85;;;29.50;53.40;;;;;;1849444;77;21112;-63
2022/08/25 09:48:38;;;;;;;8.90;2.62;;;29.50;53.70;;;;;;1852604;77;21009;-62
2022/08/25 09:51:18;;;;;;;12.90;3.95;;;29.50;53.70;;;;;;1856881;77;21049;-62
2022/08/25 09:53:50;;;;;;;8.10;3.08;;;29.60;53.70;;;;;;1857515;77;21475;-62
2022/08/25 09:56:24;;;;;;;8.18;3.55;;;29.60;53.60;;;;;;1857537;77;21468;-62
2022/08/25 09:58:59;;;;;;;9.85;3.20;;;29.70;53.60;;;;;;1857289;77;21096;-62
2022/08/25 10:01:28;;;;;;;8.80;3.17;;;29.70;53.70;;;;;;1857437;76;21038;-62
2022/08/25 10:04:00;;;;;;;8.05;3.08;;;29.80;53.70;;;;;;1857310;77;21025;-62
2022/08/25 10:06:36;;;;;;;6.30;3.02;;;29.80;53.30;;;;;;1857397;77;21021;-62
2022/08/25 10:09:07;;;;;;;15.38;3.27;;;29.80;52.90;;;;;;1851209;76;21143;-62
2022/08/25 10:11:46;;;;;;;10.55;2.67;;;29.80;53.10;;;;;;1857339;77;21037;-62
2022/08/25 10:14:19;;;;;;;10.40;3.15;;;29.80;53.00;;;;;;1857444;77;21025;-62
2022/08/25 10:16:49;;;;;;;19.00;2.85;;;29.90;52.90;;;;;;1857476;77;21209;-62
2022/08/25 10:19:27;;;;;;;8.45;3.15;;;30.00;52.90;;;;;;1849087;76;21041;-62
2022/08/25 10:22:08;;;;;;;7.03;2.72;;;30.10;52.90;;;;;;1845202;76;21100;-62
2022/08/25 10:24:39;;;;;;;8.18;2.70;;;30.10;52.40;;;;;;1845882;78;21030;-62
2022/08/25 10:27:31;;;;;;;7.85;2.98;;;30.20;52.20;;;;;;1845769;78;21121;-62
2022/08/25 10:30:21;;;;;;;10.40;2.98;;;30.20;52.30;;;;;;1844823;77;21034;-62
2022/08/25 10:33:18;;;;;;;17.48;2.72;;;30.30;52.20;;;;;;1845756;78;21120;-62
2022/08/25 10:36:05;;;;;;;9.65;3.05;;;30.30;52.10;;;;;;1845666;78;21111;-61
2022/08/25 10:38:46;;;;;;;10.23;3.65;;;30.30;52.10;;;;;;1845794;78;21570;-62
2022/08/25 10:41:29;;;;;;;5.67;2.40;;;30.30;52.00;;;;;;1842829;78;21034;-62
2022/08/25 10:47:27;;;;;;;11.38;2.98;;;30.40;51.60;;;;;;1822717;78;21097;-62
2022/08/25 10:50:11;;;;;;;9.50;3.10;;;30.30;51.60;;;;;;1844906;78;21064;-62
2022/08/25 10:53:01;;;;;;;12.00;3.87;;;30.30;51.60;;;;;;1845875;78;21092;-62
2022/08/25 10:55:33;;;;;;;6.80;2.67;;;30.30;51.60;;;;;;1845138;78;21042;-62
2022/08/25 10:58:24;;;;;;;14.28;3.02;;;30.30;51.50;;;;;;1844476;75;21030;-62
2022/08/25 11:00:58;;;;;;;11.05;3.47;;;30.30;51.70;;;;;;1845795;77;21101;-62
2022/08/25 11:03:39;;;;;;;9.85;2.70;;;30.30;51.60;;;;;;1845305;78;21042;-62
2022/08/25 11:06:11;;;;;;;11.78;4.83;;;30.40;51.50;;;;;;1845673;78;21053;-62
2022/08/25 11:08:48;;;;;;;14.68;2.85;;;30.40;51.60;;;;;;1844624;78;21562;-62
2022/08/25 11:11:37;;;;;;;10.60;2.40;;;30.40;51.60;;;;;;1845634;78;21053;-62
2022/08/25 11:14:09;;;;;;;13.88;2.72;;;30.50;51.20;;;;;;1845635;78;21058;-62
2022/08/25 11:16:46;;;;;;;12.33;3.40;;;30.50;51.10;;;;;;1845686;78;21179;-62
2022/08/25 11:19:29;;;;;;;14.35;2.85;;;30.40;51.30;;;;;;1831748;76;21074;-62
2022/08/25 11:22:18;;;;;;;6.00;2.45;;;30.40;51.30;;;;;;1845734;78;21078;-62
2022/08/25 11:24:51;;;;;;;12.80;3.60;;;30.40;51.30;;;;;;1845694;78;21112;-62
2022/08/25 11:27:25;;;;;;;13.25;2.92;;;30.40;51.30;;;;;;1845640;76;21050;-62
2022/08/25 11:30:05;;;;;;;7.47;2.77;;;30.40;51.30;;;;;;1845292;78;21096;-62
2022/08/25 11:32:35;;;;;;;13.70;2.72;;;30.30;51.10;;;;;;1845770;77;21143;-62
2022/08/25 11:35:10;;;;;;;8.23;2.65;;;30.30;51.40;;;;;;1845907;78;21034;-62
2022/08/25 11:37:58;;;;;;;13.95;3.33;;;30.30;51.50;;;;;;1845618;78;21042;-63
2022/08/25 11:40:31;;;;;;;18.27;3.10;;;30.20;51.60;;;;;;1845782;78;21054;-62
2022/08/25 11:43:11;;;;;;;13.58;3.62;;;30.10;51.60;;;;;;1845853;78;21113;-62
2022/08/25 11:45:52;;;;;;;5.72;2.62;;;30.00;51.70;;;;;;1834303;78;21054;-62
2022/08/25 11:48:46;;;;;;;11.80;2.92;;;29.90;51.90;;;;;;1845998;78;21128;-62
2022/08/25 11:51:36;;;;;;;19.95;3.45;;;29.80;52.20;;;;;;1846014;78;21034;-62
2022/08/25 11:54:17;;;;;;;7.90;3.45;;;29.70;52.40;;;;;;1845498;78;21046;-62
2022/08/25 11:57:01;;;;;;;9.75;3.40;;;29.70;52.60;;;;;;1845831;78;21002;-62
2022/08/25 11:59:51;;;;;;;12.23;3.50;;;29.60;52.60;;;;;;1846012;77;21046;-62
2022/08/25 12:02:40;;;;;;;11.68;3.50;;;29.60;52.70;;;;;;1845844;78;21026;-63
2022/08/25 12:05:21;;;;;;;8.80;3.58;;;29.60;52.70;;;;;;1845907;78;21054;-63
2022/08/25 12:11:01;;;;;;;17.17;4.37;;;29.60;52.70;;;;;;1845750;78;21050;-63
2022/08/25 12:13:44;;;;;;;9.98;5.08;;;29.70;53.00;;;;;;1845498;76;21070;-63
2022/08/25 12:16:37;;;;;;;13.15;4.17;;;29.70;53.20;;;;;;1845987;78;21030;-63
2022/08/25 12:19:28;;;;;;;16.02;5.00;;;29.70;53.30;;;;;;1845837;76;21085;-62
2022/08/25 12:22:02;;;;;;;16.67;6.67;;;29.70;53.40;;;;;;1785047;80;21165;-62
2022/08/25 12:24:43;;;;;;;18.98;4.00;;;29.60;53.40;;;;;;1831141;78;21109;-63
2022/08/25 12:27:27;;;;;;;18.27;6.62;;;29.70;53.60;;;;;;1845858;78;21461;-63
2022/08/25 12:30:20;;;;;;;19.92;9.58;;;29.60;53.90;;;;;;1846009;78;21108;-62
2022/08/25 12:33:04;;;;;;;14.25;5.22;;;29.60;54.20;;;;;;1814646;78;21111;-62
2022/08/25 12:35:56;;;;;;;25.35;8.63;;;29.60;54.20;;;;;;1815007;78;21061;-63
2022/08/25 12:38:46;;;;;;;17.50;6.17;;;29.70;54.30;;;;;;1834533;77;21034;-62
2022/08/25 12:41:18;;;;;;;24.40;6.08;;;29.70;54.40;;;;;;1845963;77;21038;-62
2022/08/25 12:43:49;;;;;;;14.73;4.83;;;29.70;54.50;;;;;;1845606;78;21464;-62
2022/08/25 12:46:28;;;;;;;24.02;7.35;;;29.70;54.50;;;;;;1845830;78;21133;-62
2022/08/25 12:49:00;;;;;;;21.50;9.60;;;29.70;54.50;;;;;;1845699;78;21077;-62
2022/08/25 12:51:34;;;;;;;26.05;7.42;;;29.80;54.60;;;;;;1845913;77;21092;-62
2022/08/25 12:54:26;;;;;;;16.80;4.58;;;29.90;54.50;;;;;;1830163;78;21124;-62
2022/08/25 12:57:03;;;;;;;9.20;3.15;;;30.10;54.30;;;;;;1845825;78;21089;-62
2022/08/25 12:59:38;;;;;;;23.07;4.35;;;30.20;53.80;;;;;;1845848;78;21062;-62
2022/08/25 13:02:30;;;;;;;13.20;3.83;;;30.30;53.50;;;;;;1846006;78;21062;-62
2022/08/25 13:05:22;;;;;;;22.80;3.95;;;30.40;53.30;;;;;;1845871;78;21058;-62
2022/08/25 13:08:26;;;;;;;19.50;4.30;;;30.50;52.90;;;;;;1845976;78;21129;-62
2022/08/25 13:11:10;;;;;;;19.95;5.67;;;30.60;52.60;;;;;;1844346;78;21062;-63
2022/08/25 13:13:57;;;;;;;18.37;4.73;;;30.70;51.80;;;;;;1846026;78;21030;-62
2022/08/25 13:16:29;;;;;;;24.18;6.03;;;30.80;51.80;;;;;;1845663;77;21465;-62
2022/08/25 13:19:00;;;;;;;19.30;4.17;;;30.80;51.30;;;;;;1845851;78;21042;-62
2022/08/25 13:21:32;;;;;;;10.18;3.17;;;30.90;50.80;;;;;;1851666;76;21139;-63
2022/08/25 13:24:02;;;;;;;17.77;2.92;;;30.90;50.70;;;;;;1851770;77;21030;-63
2022/08/25 13:26:41;;;;;;;11.95;3.30;;;30.90;50.60;;;;;;1851754;77;21069;-62
2022/08/25 13:29:15;;;;;;;19.12;3.12;;;30.90;50.60;;;;;;1851810;77;21026;-62
2022/08/25 13:31:59;;;;;;;21.87;4.35;;;30.90;50.60;;;;;;1851876;77;21167;-63
2022/08/25 13:34:36;;;;;;;14.70;4.25;;;30.80;50.50;;;;;;1852036;77;21014;-62
2022/08/25 13:37:32;;;;;;;12.05;3.90;;;30.80;50.40;;;;;;1851834;76;21073;-62
2022/08/25 13:40:11;;;;;;;29.67;4.30;;;30.80;50.30;;;;;;1851911;77;21026;-62
2022/08/25 13:42:43;;;;;;;16.32;3.65;;;30.70;50.40;;;;;;1851868;77;21468;-62
2022/08/25 13:45:15;;;;;;;20.48;3.67;;;30.70;51.30;;;;;;1851955;77;21050;-62
2022/08/25 13:47:45;;;;;;;6.78;3.08;;;30.80;50.70;;;;;;1851390;77;21573;-62
2022/08/25 13:50:29;;;;;;;11.85;3.58;;;30.90;50.30;;;;;;1851852;77;21107;-62
2022/08/25 13:53:18;;;;;;;18.77;3.98;;;31.00;50.00;;;;;;1851934;77;21152;-63
2022/08/25 13:55:56;;;;;;;14.95;3.27;;;31.10;49.70;;;;;;1851867;77;21034;-62
2022/08/25 13:58:32;;;;;;;9.53;2.92;;;31.10;49.50;;;;;;1851757;77;21121;-63
2022/08/25 14:01:07;;;;;;;14.45;3.85;;;31.20;50.10;;;;;;1851650;77;21049;-63
2022/08/25 14:03:42;;;;;;;9.50;3.08;;;31.30;49.40;;;;;;1851717;77;21633;-63
2022/08/25 14:06:16;;;;;;;15.18;2.87;;;31.30;49.10;;;;;;1851767;77;21112;-63
2022/08/25 14:09:00;;;;;;;13.22;3.20;;;31.40;48.80;;;;;;1851797;77;21081;-63
2022/08/25 14:11:36;;;;;;;20.37;4.03;;;31.40;48.30;;;;;;1851873;77;21053;-63
2022/08/25 14:14:11;;;;;;;9.25;2.40;;;31.40;48.80;;;;;;1850848;77;21062;-63
2022/08/25 14:17:01;;;;;;;15.85;2.98;;;31.40;48.10;;;;;;1851742;76;21046;-64
2022/08/25 14:19:31;;;;;;;10.28;2.62;;;31.40;48.30;;;;;;1879715;76;21069;-63
2022/08/25 14:22:01;;;;;;;14.45;3.60;;;31.50;48.10;;;;;;1879653;76;21029;-63
2022/08/25 14:24:35;;;;;;;11.90;2.77;;;31.50;47.70;;;;;;1879798;76;21033;-63
2022/08/25 14:27:03;;;;;;;;;;;31.50;47.50;;;;;;1882647;76;21071;-63
2022/08/25 14:29:38;;;;;;;;;;;31.50;47.40;;;;;;1949170;73;20125;-63
2022/08/25 14:32:09;;;;;;;23.25;3.27;;;31.50;46.60;;;;;;1958663;73;20220;-62
2022/08/25 14:34:39;;;;;;;19.70;3.05;;;31.50;47.00;;;;;;1958684;73;21131;-63
2022/08/25 14:37:14;;;;;;;16.32;3.85;;;31.40;46.80;;;;;;1958662;73;21095;-63
2022/08/25 14:39:44;;;;;;;23.90;3.45;;;31.50;46.80;;;;;;1958433;73;21044;-62
2022/08/25 14:42:15;;;;;;;13.08;3.45;;;31.40;46.50;;;;;;1958653;73;21001;-62
2022/08/25 14:44:44;;;;;;;13.88;4.00;;;31.40;46.50;;;;;;1958567;73;21525;-62
2022/08/25 14:47:14;;;;;;;14.95;3.58;;;31.50;46.60;;;;;;1958565;73;20989;-62
2022/08/25 14:49:46;;;;;;;7.37;2.37;;;31.40;47.30;;;;;;1958637;73;21001;-62
2022/08/25 14:52:20;;;;;;;16.40;3.55;;;31.50;46.50;;;;;;1958552;73;21009;-63
2022/08/25 14:54:50;;;;;;;11.78;3.37;;;31.50;46.40;;;;;;1958679;73;21029;-63
2022/08/25 14:57:19;;;;;;;18.15;3.17;;;31.40;46.40;;;;;;1958501;73;21083;-63
2022/08/25 14:59:49;;;;;;;24.00;3.50;;;31.40;46.30;;;;;;1958589;73;21032;-63
2022/08/25 15:02:21;;;;;;;25.57;4.22;;;31.40;46.20;;;;;;1958488;73;21033;-63
2022/08/25 15:04:56;;;;;;;28.30;4.25;;;31.40;46.00;;;;;;1958524;73;21013;-63
2022/08/25 15:10:13;;;;;;;22.27;4.53;;;31.30;46.30;;;;;;1958502;73;21094;-63
2022/08/25 15:12:42;;;;;;;20.08;5.22;;;31.20;46.30;;;;;;1958526;73;21095;-62
2022/08/25 15:15:13;;;;;;;13.48;4.30;;;31.20;46.40;;;;;;1958503;73;21041;-62
2022/08/25 15:17:44;;;;;;;14.13;4.45;;;31.20;46.50;;;;;;1958599;73;21017;-62
2022/08/25 15:20:14;;;;;;;15.60;3.65;;;31.10;46.50;;;;;;1958448;73;21103;-63
2022/08/25 15:22:44;;;;;;;16.25;4.65;;;31.00;46.60;;;;;;1958635;73;21009;-63
2022/08/25 15:25:13;;;;;;;24.45;3.72;;;31.00;46.70;;;;;;1958713;73;21005;-63
2022/08/25 15:27:43;;;;;;;16.10;3.72;;;30.90;46.70;;;;;;1958799;73;21029;-62
2022/08/25 15:30:13;;;;;;;19.30;3.80;;;30.90;46.90;;;;;;1944454;72;21025;-63
2022/08/25 15:32:43;;;;;;;27.70;4.03;;;30.80;46.90;;;;;;1942336;74;21028;-62
2022/08/25 15:35:12;;;;;;;22.42;3.90;;;30.80;47.00;;;;;;1942246;74;20996;-62
2022/08/25 15:37:42;;;;;;;28.73;5.37;;;30.70;46.90;;;;;;1942351;74;21016;-62
2022/08/25 15:40:12;;;;;;;28.25;4.28;;;30.60;46.90;;;;;;1942281;74;20981;-62
2022/08/25 15:42:41;;;;;;;25.72;5.35;;;30.60;46.90;;;;;;1942252;74;21051;-62
2022/08/25 15:45:11;;;;;;;26.73;4.85;;;30.50;46.90;;;;;;1942226;74;21005;-62
2022/08/25 15:47:40;;;;;;;23.85;4.15;;;30.50;47.00;;;;;;1942216;73;21090;-62
2022/08/25 15:50:15;;;;;;;27.90;5.33;;;30.50;47.00;;;;;;1942306;74;21071;-62
2022/08/25 15:52:45;;;;;;;21.20;5.17;;;30.40;46.90;;;;;;1942333;74;21127;-62
2022/08/25 15:55:15;;;;;;;61.30;42.67;;;30.40;46.80;;;;;;1942164;74;21017;-62
2022/08/25 15:57:44;;;;;;;21.02;5.30;;;30.40;46.90;;;;;;1942068;74;20992;-62
2022/08/25 16:00:15;;;;;;;32.53;10.68;;;30.30;46.70;;;;;;1942212;74;21025;-62
2022/08/25 16:02:45;;;;;;;24.80;6.47;;;30.30;46.90;;;;;;1942255;74;21032;-62
2022/08/25 16:05:14;;;;;;;24.07;5.53;;;30.30;47.10;;;;;;1942297;74;21040;-62
2022/08/25 16:07:47;;;;;;;29.25;7.92;;;30.20;47.20;;;;;;1942248;73;21091;-62
2022/08/25 16:10:17;;;;;;;27.73;7.42;;;30.10;47.40;;;;;;1942257;73;21028;-62
2022/08/25 16:12:46;;;;;;;31.48;8.43;;;30.10;47.90;;;;;;1942360;74;21082;-62
2022/08/25 16:15:16;;;;;;;38.98;8.43;;;30.00;47.30;;;;;;1942246;74;21080;-62
2022/08/25 16:17:45;;;;;;;38.48;8.38;;;30.00;47.40;;;;;;1942196;74;21140;-62
2022/08/25 16:20:17;;;;;;;29.90;7.92;;;29.90;47.50;;;;;;1942294;74;21016;-62
2022/08/25 16:22:46;;;;;;;33.45;7.45;;;29.80;47.60;;;;;;1942241;74;21126;-62
2022/08/25 16:25:16;;;;;;;28.32;8.35;;;29.80;48.00;;;;;;1942256;74;20977;-62
2022/08/25 16:27:45;;;;;;;43.20;13.58;;;29.80;48.00;;;;;;1942346;74;21028;-62
2022/08/25 16:30:15;;;;;;;43.92;11.63;;;29.70;48.30;;;;;;1942230;72;21028;-62
2022/08/25 16:32:45;;;;;;;67.03;15.43;;;29.70;48.80;;;;;;1942268;74;21164;-62
2022/08/25 16:35:15;;;;;;;39.45;12.25;;;29.60;49.10;;;;;;1942246;74;21083;-62
2022/08/25 16:37:44;;;;;;;33.10;10.32;;;29.60;48.80;;;;;;1942286;74;21106;-63
2022/08/25 16:40:15;;;;;;;38.98;12.23;;;29.50;48.90;;;;;;1942224;74;21020;-63
2022/08/25 16:42:45;;;;;;;50.90;14.90;;;29.50;49.00;;;;;;1942441;74;21020;-63
2022/08/25 16:45:14;;;;;;;48.73;18.27;;;29.50;49.20;;;;;;1942247;74;21078;-63
2022/08/25 16:47:44;;;;;;;49.53;14.13;;;29.40;49.00;;;;;;1942199;74;21017;-63
2022/08/25 16:50:14;;;;;;;27.82;10.65;;;29.40;49.40;;;;;;1942240;74;21054;-63
2022/08/25 16:55:31;;;;;;;39.75;14.98;;;29.20;48.90;;;;;;1942235;74;21102;-63
2022/08/25 16:58:00;;;;;;;46.02;14.73;;;29.20;48.60;;;;;;1942292;74;21087;-63
2022/08/25 17:00:31;;;;;;;50.03;13.85;;;29.20;48.30;;;;;;1942197;74;21522;-63
2022/08/25 17:03:03;;;;;;;58.85;14.05;;;29.10;48.30;;;;;;1942163;74;21071;-63
2022/08/25 17:05:43;;;;;;;33.53;10.18;;;29.10;48.20;;;;;;1923029;70;21127;-63
2022/08/25 17:08:28;;;;;;;42.10;12.15;;;29.00;48.90;;;;;;1919965;75;21506;-62
2022/08/25 17:11:09;;;;;;;42.83;12.03;;;29.00;49.10;;;;;;1919974;75;21030;-63
2022/08/25 17:13:40;;;;;;;39.83;9.45;;;28.90;49.30;;;;;;1919920;75;21449;-63
2022/08/25 17:16:10;;;;;;;26.80;8.33;;;28.90;49.00;;;;;;1919783;75;21085;-63
2022/08/25 17:18:39;;;;;;;62.00;14.20;;;28.80;49.80;;;;;;1919887;75;21449;-63
2022/08/25 17:21:12;;;;;;;53.75;12.13;;;28.80;50.00;;;;;;1919852;75;21018;-63
2022/08/25 17:23:42;;;;;;;41.98;10.90;;;28.80;50.30;;;;;;1919982;75;21029;-63
2022/08/25 17:26:13;;;;;;;60.28;13.50;;;28.70;50.90;;;;;;1919991;75;21092;-63
2022/08/25 17:28:43;;;;;;;39.60;10.80;;;28.60;50.90;;;;;;1919885;75;21080;-64
2022/08/25 17:31:14;;;;;;;40.40;10.18;;;28.60;51.20;;;;;;1919882;75;21026;-63
2022/08/25 17:33:44;;;;;;;54.77;14.18;;;28.60;51.60;;;;;;1919858;74;21021;-63
2022/08/25 17:36:14;;;;;;;64.15;15.53;;;28.50;51.70;;;;;;1919941;75;21038;-63
2022/08/25 17:38:43;;;;;;;55.92;12.90;;;28.50;51.70;;;;;;1919826;75;21096;-63
2022/08/25 17:41:13;;;;;;;48.30;12.28;;;28.40;51.80;;;;;;1919877;75;21018;-63
2022/08/25 17:43:43;;;;;;;42.10;8.90;;;28.40;51.90;;;;;;1919861;75;21092;-63
2022/08/25 17:46:13;;;;;;;37.60;8.58;;;28.30;52.00;;;;;;1919868;75;21079;-63
2022/08/25 17:48:43;;;;;;;34.10;8.60;;;28.30;52.20;;;;;;1919842;75;21022;-63
2022/08/25 17:51:12;;;;;;;52.38;9.85;;;28.20;52.40;;;;;;1919974;75;21025;-63
2022/08/25 17:53:42;;;;;;;42.27;9.70;;;28.10;52.40;;;;;;1919957;75;21002;-63
2022/08/25 17:56:13;;;;;;;26.95;7.15;;;28.00;52.60;;;;;;1919934;75;21103;-63
2022/08/25 17:58:43;;;;;;;35.95;8.95;;;28.00;53.00;;;;;;1919771;75;20998;-63
2022/08/25 18:01:20;;;;;;;28.62;9.55;;;27.90;52.70;;;;;;1919846;75;20998;-63
2022/08/25 18:03:50;;;;;;;35.38;8.10;;;27.90;52.70;;;;;;1920086;75;21062;-63
2022/08/25 18:06:21;;;;;;;49.00;11.28;;;27.80;52.30;;;;;;1933639;74;21092;-63
2022/08/25 18:08:51;;;;;;;41.92;11.50;;;27.70;51.90;;;;;;1936252;74;21154;-63
2022/08/25 18:11:23;;;;;;;52.33;10.65;;;27.60;51.80;;;;;;1936262;74;21120;-63
2022/08/25 18:13:53;;;;;;;42.03;8.28;;;27.50;51.70;;;;;;1936233;74;21001;-63
2022/08/25 18:16:22;;;;;;;45.55;9.93;;;27.40;51.20;;;;;;1936252;74;21103;-63
2022/08/25 18:18:53;;;;;;;54.15;9.30;;;27.30;50.80;;;;;;1936248;74;20997;-63
2022/08/25 18:21:24;;;;;;;37.60;7.75;;;27.30;50.60;;;;;;1936321;74;21180;-63
2022/08/25 18:23:54;;;;;;;34.73;8.15;;;27.30;50.20;;;;;;1936296;74;21005;-63
2022/08/25 18:26:25;;;;;;;45.98;8.53;;;27.20;50.20;;;;;;1936268;74;21029;-63
2022/08/25 18:28:54;;;;;;;33.85;6.47;;;27.30;50.30;;;;;;1936395;74;21025;-63
2022/08/25 18:31:24;;;;;;;48.68;7.60;;;27.30;50.80;;;;;;1936308;74;21022;-63
2022/08/25 18:33:53;;;;;;;33.10;6.20;;;27.30;50.70;;;;;;1936283;74;21041;-63
2022/08/25 18:36:22;;;;;;;28.52;5.87;;;27.40;50.80;;;;;;1936452;74;21010;-63
2022/08/25 18:41:41;;;;;;;39.08;8.38;;;27.50;50.50;;;;;;1936323;74;21381;-62
2022/08/25 18:44:10;;;;;;;52.75;8.15;;;27.50;50.30;;;;;;1936263;74;21060;-62
2022/08/25 18:46:40;;;;;;;44.27;8.20;;;27.40;50.00;;;;;;1936234;74;21049;-63
2022/08/25 18:49:10;;;;;;;37.03;6.97;;;27.40;49.80;;;;;;1936257;74;21068;-62
2022/08/25 18:51:39;;;;;;;39.10;7.65;;;27.40;49.70;;;;;;1936277;74;21025;-62
2022/08/25 18:54:08;;;;;;;43.98;8.03;;;27.40;49.90;;;;;;1936388;74;21029;-62
2022/08/25 18:56:38;;;;;;;34.90;7.15;;;27.40;50.00;;;;;;1936351;74;21019;-62
2022/08/25 18:59:07;;;;;;;38.33;7.35;;;27.40;50.30;;;;;;1936271;74;21033;-62
2022/08/25 19:01:37;;;;;;;36.33;8.35;;;27.40;50.40;;;;;;1936286;74;21029;-62
2022/08/25 19:04:06;;;;;;;40.08;7.03;;;27.30;50.80;;;;;;1936352;74;21029;-62
2022/08/25 19:06:36;;;;;;;37.78;8.33;;;27.30;51.20;;;;;;1924678;74;21037;-62
2022/08/25 19:09:05;;;;;;;35.50;7.42;;;27.30;51.30;;;;;;1919785;75;21038;-62
2022/08/25 19:11:35;;;;;;;40.15;7.72;;;27.30;51.40;;;;;;1919902;75;21065;-62
2022/08/25 19:14:04;;;;;;;37.53;7.40;;;27.20;51.10;;;;;;1919854;75;21472;-62
2022/08/25 19:16:37;;;;;;;43.20;8.00;;;27.20;51.30;;;;;;1919863;75;21025;-62
2022/08/25 19:19:11;;;;;;;37.50;7.80;;;27.10;51.50;;;;;;1919868;75;20998;-62
2022/08/25 19:21:46;;;;;;;39.23;7.85;;;27.10;51.50;;;;;;1902240;74;21563;-62
2022/08/25 19:24:16;;;;;;;36.58;6.58;;;27.00;51.70;;;;;;1903079;75;21037;-62
2022/08/25 19:26:45;;;;;;;40.78;9.80;;;27.00;52.30;;;;;;1903237;75;21072;-62
2022/08/25 19:29:16;;;;;;;42.60;7.78;;;26.90;52.70;;;;;;1903105;75;21021;-62
2022/08/25 19:31:47;;;;;;;28.42;6.53;;;26.90;53.30;;;;;;1903157;75;21096;-62
2022/08/25 19:34:19;;;;;;;40.48;7.25;;;26.90;53.80;;;;;;1903090;75;21029;-62
2022/08/25 19:36:49;;;;;;;25.37;5.90;;;26.80;54.00;;;;;;1902981;75;21099;-61
2022/08/25 19:39:18;;;;;;;33.08;6.25;;;26.80;54.40;;;;;;1903072;75;21139;-62
2022/08/25 19:41:48;;;;;;;30.27;6.10;;;26.80;54.60;;;;;;1903232;75;21107;-61
2022/08/25 19:44:17;;;;;;;26.48;6.15;;;26.70;54.60;;;;;;1903068;75;21021;-61
2022/08/25 19:46:46;;;;;;;26.50;6.00;;;26.70;55.00;;;;;;1903187;75;21054;-61
2022/08/25 19:49:19;;;;;;;41.05;8.90;;;26.70;55.10;;;;;;1903201;75;21170;-61
2022/08/25 19:51:51;;;;;;;40.05;7.47;;;26.60;55.10;;;;;;1903147;75;21053;-62
2022/08/25 19:54:28;;;;;;;38.50;7.20;;;26.60;54.90;;;;;;1903159;75;21041;-62
2022/08/25 19:56:58;;;;;;;35.70;6.30;;;26.60;55.10;;;;;;1901839;75;21112;-62
2022/08/25 19:59:30;;;;;;;49.85;8.30;;;26.60;55.30;;;;;;1903145;75;21049;-62
2022/08/25 20:01:59;;;;;;;30.02;6.87;;;26.50;55.30;;;;;;1903070;75;21065;-61
2022/08/25 20:04:29;;;;;;;37.33;7.28;;;26.50;55.30;;;;;;1903144;75;21056;-61
2022/08/25 20:06:58;;;;;;;48.78;11.22;;;26.50;55.50;;;;;;1903071;75;21033;-61
2022/08/25 20:09:28;;;;;;;32.88;7.33;;;26.50;55.50;;;;;;1903120;75;21045;-61
2022/08/25 20:11:57;;;;;;;44.60;9.53;;;26.50;55.80;;;;;;1903205;75;21014;-61
2022/08/25 20:14:26;;;;;;;32.83;6.72;;;26.50;55.90;;;;;;1903342;75;21103;-61
2022/08/25 20:16:56;;;;;;;27.15;6.40;;;26.50;56.20;;;;;;1903259;75;21037;-61
2022/08/25 20:19:25;;;;;;;49.35;7.78;;;26.50;56.70;;;;;;1903292;75;21460;-61
2022/08/25 20:21:55;;;;;;;36.05;7.60;;;26.50;56.30;;;;;;1872912;75;21124;-61
2022/08/25 20:27:12;;;;;;;25.72;6.00;;;26.50;55.40;;;;;;1865772;77;21046;-62
2022/08/25 20:29:41;;;;;;;37.50;6.05;;;26.40;55.80;;;;;;1865682;77;21026;-62
2022/08/25 20:32:11;;;;;;;41.13;6.45;;;26.30;56.00;;;;;;1865671;77;21010;-62
2022/08/25 20:34:40;;;;;;;48.02;8.03;;;26.30;56.20;;;;;;1865689;77;21034;-62
2022/08/25 20:37:10;;;;;;;44.03;7.25;;;26.30;56.00;;;;;;1865712;77;21054;-62
2022/08/25 20:39:40;;;;;;;52.25;7.90;;;26.30;55.80;;;;;;1865689;77;21135;-62